sensor_id;sensor_type;location;lat;lon;timestamp;P1;durP1;ratioP1;P2;durP2;ratioP2
69573;SDS011;62840;52.366;5.980;2022-12-18T00:00:47;38.22;;;11.55;;
69573;SDS011;62840;52.366;5.980;2022-12-18T00:03:13;37.20;;;10.98;;
69573;SDS011;62840;52.366;5.980;2022-12-18T00:05:45;33.35;;;11.32;;
69573;SDS011;62840;52.366;5.980;2022-12-18T00:08:12;39.90;;;12.35;;
69573;SDS011;62840;52.366;5.980;2022-12-18T00:10:38;33.83;;;10.77;;
69573;SDS011;62840;52.366;5.980;2022-12-18T00:13:06;35.63;;;11.55;;
69573;SDS011;62840;52.366;5.980;2022-12-18T00:15:32;32.60;;;11.30;;
69573;SDS011;62840;52.366;5.980;2022-12-18T00:17:58;33.28;;;11.73;;
69573;SDS011;62840;52.366;5.980;2022-12-18T00:20:24;31.20;;;10.48;;
69573;SDS011;62840;52.366;5.980;2022-12-18T00:22:50;34.10;;;11.57;;
69573;SDS011;62840;52.366;5.980;2022-12-18T00:25:15;40.38;;;11.65;;
69573;SDS011;62840;52.366;5.980;2022-12-18T00:27:44;32.27;;;11.40;;
69573;SDS011;62840;52.366;5.980;2022-12-18T00:30:12;33.05;;;11.32;;
69573;SDS011;62840;52.366;5.980;2022-12-18T00:32:38;30.30;;;10.20;;
69573;SDS011;62840;52.366;5.980;2022-12-18T00:35:04;36.03;;;12.07;;
69573;SDS011;62840;52.366;5.980;2022-12-18T00:37:32;38.40;;;13.23;;
69573;SDS011;62840;52.366;5.980;2022-12-18T00:39:58;36.65;;;12.27;;
69573;SDS011;62840;52.366;5.980;2022-12-18T00:42:24;34.92;;;11.05;;
69573;SDS011;62840;52.366;5.980;2022-12-18T00:44:50;31.73;;;11.50;;
69573;SDS011;62840;52.366;5.980;2022-12-18T00:47:18;35.53;;;11.50;;
69573;SDS011;62840;52.366;5.980;2022-12-18T00:49:44;35.30;;;11.37;;
69573;SDS011;62840;52.366;5.980;2022-12-18T00:52:10;32.28;;;11.05;;
69573;SDS011;62840;52.366;5.980;2022-12-18T00:54:35;27.63;;;10.97;;
69573;SDS011;62840;52.366;5.980;2022-12-18T00:57:01;34.00;;;11.23;;
69573;SDS011;62840;52.366;5.980;2022-12-18T00:59:27;32.03;;;11.25;;
69573;SDS011;62840;52.366;5.980;2022-12-18T01:01:53;34.90;;;11.53;;
69573;SDS011;62840;52.366;5.980;2022-12-18T01:04:21;34.08;;;12.00;;
69573;SDS011;62840;52.366;5.980;2022-12-18T01:06:47;29.73;;;10.93;;
69573;SDS011;62840;52.366;5.980;2022-12-18T01:09:13;30.52;;;10.77;;
69573;SDS011;62840;52.366;5.980;2022-12-18T01:11:39;32.17;;;11.13;;
69573;SDS011;62840;52.366;5.980;2022-12-18T01:14:04;32.40;;;11.65;;
69573;SDS011;62840;52.366;5.980;2022-12-18T01:16:30;28.27;;;10.43;;
69573;SDS011;62840;52.366;5.980;2022-12-18T01:18:56;31.73;;;10.45;;
69573;SDS011;62840;52.366;5.980;2022-12-18T01:21:24;31.57;;;10.33;;
69573;SDS011;62840;52.366;5.980;2022-12-18T01:23:51;35.00;;;11.45;;
69573;SDS011;62840;52.366;5.980;2022-12-18T01:26:18;30.23;;;10.52;;
69573;SDS011;62840;52.366;5.980;2022-12-18T01:28:45;31.90;;;10.68;;
69573;SDS011;62840;52.366;5.980;2022-12-18T01:31:12;38.37;;;12.77;;
69573;SDS011;62840;52.366;5.980;2022-12-18T01:33:42;29.88;;;10.52;;
69573;SDS011;62840;52.366;5.980;2022-12-18T01:36:08;32.03;;;10.65;;
69573;SDS011;62840;52.366;5.980;2022-12-18T01:38:44;31.27;;;10.82;;
69573;SDS011;62840;52.366;5.980;2022-12-18T01:41:11;34.35;;;11.50;;
69573;SDS011;62840;52.366;5.980;2022-12-18T01:43:41;33.53;;;11.70;;
69573;SDS011;62840;52.366;5.980;2022-12-18T01:46:11;31.42;;;11.02;;
69573;SDS011;62840;52.366;5.980;2022-12-18T01:48:38;32.92;;;11.02;;
69573;SDS011;62840;52.366;5.980;2022-12-18T01:51:05;28.63;;;10.48;;
69573;SDS011;62840;52.366;5.980;2022-12-18T01:53:34;28.65;;;11.80;;
69573;SDS011;62840;52.366;5.980;2022-12-18T01:56:06;32.97;;;10.90;;
69573;SDS011;62840;52.366;5.980;2022-12-18T01:58:35;31.05;;;10.65;;
69573;SDS011;62840;52.366;5.980;2022-12-18T02:01:11;28.33;;;11.25;;
69573;SDS011;62840;52.366;5.980;2022-12-18T02:03:40;22.25;;;9.13;;
69573;SDS011;62840;52.366;5.980;2022-12-18T02:06:07;29.85;;;10.13;;
69573;SDS011;62840;52.366;5.980;2022-12-18T02:08:42;29.77;;;10.73;;
69573;SDS011;62840;52.366;5.980;2022-12-18T02:11:29;35.83;;;10.63;;
69573;SDS011;62840;52.366;5.980;2022-12-18T02:14:10;28.05;;;9.95;;
69573;SDS011;62840;52.366;5.980;2022-12-18T02:16:50;30.42;;;10.55;;
69573;SDS011;62840;52.366;5.980;2022-12-18T02:19:41;32.47;;;10.30;;
69573;SDS011;62840;52.366;5.980;2022-12-18T02:22:26;30.47;;;10.10;;
69573;SDS011;62840;52.366;5.980;2022-12-18T02:25:06;30.25;;;9.85;;
69573;SDS011;62840;52.366;5.980;2022-12-18T02:27:55;23.88;;;10.07;;
69573;SDS011;62840;52.366;5.980;2022-12-18T02:30:28;31.58;;;9.68;;
69573;SDS011;62840;52.366;5.980;2022-12-18T02:32:58;25.08;;;9.65;;
69573;SDS011;62840;52.366;5.980;2022-12-18T02:35:29;30.37;;;10.43;;
69573;SDS011;62840;52.366;5.980;2022-12-18T02:37:57;27.77;;;9.93;;
69573;SDS011;62840;52.366;5.980;2022-12-18T02:40:24;26.30;;;9.45;;
69573;SDS011;62840;52.366;5.980;2022-12-18T02:42:55;28.05;;;9.55;;
69573;SDS011;62840;52.366;5.980;2022-12-18T02:45:31;26.23;;;8.75;;
69573;SDS011;62840;52.366;5.980;2022-12-18T02:47:57;24.97;;;9.07;;
69573;SDS011;62840;52.366;5.980;2022-12-18T02:50:25;26.42;;;9.27;;
69573;SDS011;62840;52.366;5.980;2022-12-18T02:53:10;28.60;;;10.50;;
69573;SDS011;62840;52.366;5.980;2022-12-18T02:55:51;22.10;;;9.35;;
69573;SDS011;62840;52.366;5.980;2022-12-18T02:58:36;27.42;;;9.82;;
69573;SDS011;62840;52.366;5.980;2022-12-18T03:01:13;24.98;;;9.50;;
69573;SDS011;62840;52.366;5.980;2022-12-18T03:03:47;22.73;;;8.85;;
69573;SDS011;62840;52.366;5.980;2022-12-18T03:06:20;26.63;;;9.60;;
69573;SDS011;62840;52.366;5.980;2022-12-18T03:08:54;24.88;;;9.35;;
69573;SDS011;62840;52.366;5.980;2022-12-18T03:11:28;24.92;;;10.45;;
69573;SDS011;62840;52.366;5.980;2022-12-18T03:14:03;28.00;;;9.70;;
69573;SDS011;62840;52.366;5.980;2022-12-18T03:16:32;25.13;;;9.82;;
69573;SDS011;62840;52.366;5.980;2022-12-18T03:19:01;28.83;;;9.23;;
69573;SDS011;62840;52.366;5.980;2022-12-18T03:21:36;22.67;;;8.88;;
69573;SDS011;62840;52.366;5.980;2022-12-18T03:24:08;26.77;;;10.32;;
69573;SDS011;62840;52.366;5.980;2022-12-18T03:26:36;23.33;;;9.70;;
69573;SDS011;62840;52.366;5.980;2022-12-18T03:29:14;24.38;;;10.10;;
69573;SDS011;62840;52.366;5.980;2022-12-18T03:31:48;22.80;;;9.03;;
69573;SDS011;62840;52.366;5.980;2022-12-18T03:34:21;23.00;;;9.02;;
69573;SDS011;62840;52.366;5.980;2022-12-18T03:36:56;22.88;;;8.80;;
69573;SDS011;62840;52.366;5.980;2022-12-18T03:39:22;21.95;;;9.40;;
69573;SDS011;62840;52.366;5.980;2022-12-18T03:41:51;25.23;;;9.60;;
69573;SDS011;62840;52.366;5.980;2022-12-18T03:44:29;22.77;;;9.07;;
69573;SDS011;62840;52.366;5.980;2022-12-18T03:47:03;29.05;;;9.02;;
69573;SDS011;62840;52.366;5.980;2022-12-18T03:49:38;23.15;;;9.73;;
69573;SDS011;62840;52.366;5.980;2022-12-18T03:52:14;23.60;;;10.10;;
69573;SDS011;62840;52.366;5.980;2022-12-18T03:54:50;25.45;;;10.32;;
69573;SDS011;62840;52.366;5.980;2022-12-18T03:57:21;28.47;;;9.87;;
69573;SDS011;62840;52.366;5.980;2022-12-18T03:59:54;26.92;;;8.70;;
69573;SDS011;62840;52.366;5.980;2022-12-18T04:02:25;25.42;;;8.98;;
69573;SDS011;62840;52.366;5.980;2022-12-18T04:04:51;28.38;;;10.10;;
69573;SDS011;62840;52.366;5.980;2022-12-18T04:07:23;26.23;;;9.93;;
69573;SDS011;62840;52.366;5.980;2022-12-18T04:09:50;22.10;;;8.90;;
69573;SDS011;62840;52.366;5.980;2022-12-18T04:12:21;24.92;;;9.30;;
69573;SDS011;62840;52.366;5.980;2022-12-18T04:14:50;23.20;;;8.85;;
69573;SDS011;62840;52.366;5.980;2022-12-18T04:17:18;25.58;;;9.48;;
69573;SDS011;62840;52.366;5.980;2022-12-18T04:19:44;26.70;;;9.43;;
69573;SDS011;62840;52.366;5.980;2022-12-18T04:22:09;25.52;;;10.13;;
69573;SDS011;62840;52.366;5.980;2022-12-18T04:24:36;26.08;;;9.57;;
69573;SDS011;62840;52.366;5.980;2022-12-18T04:27:02;25.80;;;8.97;;
69573;SDS011;62840;52.366;5.980;2022-12-18T04:29:28;23.30;;;8.32;;
69573;SDS011;62840;52.366;5.980;2022-12-18T04:31:54;24.52;;;8.57;;
69573;SDS011;62840;52.366;5.980;2022-12-18T04:34:22;18.80;;;7.90;;
69573;SDS011;62840;52.366;5.980;2022-12-18T04:36:48;26.73;;;8.85;;
69573;SDS011;62840;52.366;5.980;2022-12-18T04:39:14;23.70;;;9.32;;
69573;SDS011;62840;52.366;5.980;2022-12-18T04:41:40;23.80;;;9.83;;
69573;SDS011;62840;52.366;5.980;2022-12-18T04:44:05;23.02;;;9.13;;
69573;SDS011;62840;52.366;5.980;2022-12-18T04:46:32;26.45;;;9.13;;
69573;SDS011;62840;52.366;5.980;2022-12-18T04:48:57;21.90;;;8.47;;
69573;SDS011;62840;52.366;5.980;2022-12-18T04:51:26;20.80;;;9.38;;
69573;SDS011;62840;52.366;5.980;2022-12-18T04:53:52;23.75;;;9.48;;
69573;SDS011;62840;52.366;5.980;2022-12-18T04:56:18;25.27;;;9.30;;
69573;SDS011;62840;52.366;5.980;2022-12-18T04:58:44;23.13;;;9.32;;
69573;SDS011;62840;52.366;5.980;2022-12-18T05:01:10;23.40;;;9.52;;
69573;SDS011;62840;52.366;5.980;2022-12-18T05:03:39;27.40;;;10.45;;
69573;SDS011;62840;52.366;5.980;2022-12-18T05:06:05;24.95;;;9.80;;
69573;SDS011;62840;52.366;5.980;2022-12-18T05:08:35;21.80;;;9.13;;
69573;SDS011;62840;52.366;5.980;2022-12-18T05:11:01;22.60;;;9.70;;
69573;SDS011;62840;52.366;5.980;2022-12-18T05:13:30;20.83;;;8.85;;
69573;SDS011;62840;52.366;5.980;2022-12-18T05:15:57;24.13;;;9.45;;
69573;SDS011;62840;52.366;5.980;2022-12-18T05:18:23;21.80;;;8.45;;
69573;SDS011;62840;52.366;5.980;2022-12-18T05:20:50;22.40;;;9.30;;
69573;SDS011;62840;52.366;5.980;2022-12-18T05:23:17;22.02;;;8.50;;
69573;SDS011;62840;52.366;5.980;2022-12-18T05:25:50;21.40;;;9.13;;
69573;SDS011;62840;52.366;5.980;2022-12-18T05:28:16;22.83;;;7.80;;
69573;SDS011;62840;52.366;5.980;2022-12-18T05:30:42;24.45;;;8.23;;
69573;SDS011;62840;52.366;5.980;2022-12-18T05:33:12;21.70;;;8.07;;
69573;SDS011;62840;52.366;5.980;2022-12-18T05:35:38;20.20;;;8.27;;
69573;SDS011;62840;52.366;5.980;2022-12-18T05:38:03;22.43;;;8.67;;
69573;SDS011;62840;52.366;5.980;2022-12-18T05:40:29;21.63;;;7.82;;
69573;SDS011;62840;52.366;5.980;2022-12-18T05:42:57;19.87;;;8.37;;
69573;SDS011;62840;52.366;5.980;2022-12-18T05:45:23;18.52;;;7.55;;
69573;SDS011;62840;52.366;5.980;2022-12-18T05:47:49;23.23;;;8.85;;
69573;SDS011;62840;52.366;5.980;2022-12-18T05:50:14;17.40;;;8.47;;
69573;SDS011;62840;52.366;5.980;2022-12-18T05:52:40;22.38;;;8.95;;
69573;SDS011;62840;52.366;5.980;2022-12-18T05:55:07;18.95;;;7.55;;
69573;SDS011;62840;52.366;5.980;2022-12-18T05:57:33;21.13;;;7.78;;
69573;SDS011;62840;52.366;5.980;2022-12-18T06:00:01;22.35;;;8.35;;
69573;SDS011;62840;52.366;5.980;2022-12-18T06:02:28;20.13;;;7.35;;
69573;SDS011;62840;52.366;5.980;2022-12-18T06:04:54;21.77;;;7.83;;
69573;SDS011;62840;52.366;5.980;2022-12-18T06:07:20;22.80;;;8.13;;
69573;SDS011;62840;52.366;5.980;2022-12-18T06:09:45;18.53;;;7.43;;
69573;SDS011;62840;52.366;5.980;2022-12-18T06:12:11;16.52;;;7.05;;
69573;SDS011;62840;52.366;5.980;2022-12-18T06:14:37;18.40;;;7.87;;
69573;SDS011;62840;52.366;5.980;2022-12-18T06:17:05;16.92;;;8.13;;
69573;SDS011;62840;52.366;5.980;2022-12-18T06:19:31;20.23;;;7.07;;
69573;SDS011;62840;52.366;5.980;2022-12-18T06:21:57;17.30;;;7.17;;
69573;SDS011;62840;52.366;5.980;2022-12-18T06:24:22;22.92;;;7.32;;
69573;SDS011;62840;52.366;5.980;2022-12-18T06:26:48;17.30;;;8.00;;
69573;SDS011;62840;52.366;5.980;2022-12-18T06:29:14;18.88;;;8.27;;
69573;SDS011;62840;52.366;5.980;2022-12-18T06:31:40;22.07;;;7.73;;
69573;SDS011;62840;52.366;5.980;2022-12-18T06:34:08;20.10;;;8.15;;
69573;SDS011;62840;52.366;5.980;2022-12-18T06:36:34;22.63;;;8.32;;
69573;SDS011;62840;52.366;5.980;2022-12-18T06:38:59;17.13;;;6.97;;
69573;SDS011;62840;52.366;5.980;2022-12-18T06:41:25;20.58;;;7.78;;
69573;SDS011;62840;52.366;5.980;2022-12-18T06:43:51;17.43;;;6.97;;
69573;SDS011;62840;52.366;5.980;2022-12-18T06:46:17;20.05;;;8.25;;
69573;SDS011;62840;52.366;5.980;2022-12-18T06:48:45;15.82;;;6.75;;
69573;SDS011;62840;52.366;5.980;2022-12-18T06:51:17;17.13;;;7.07;;
69573;SDS011;62840;52.366;5.980;2022-12-18T06:53:45;18.08;;;7.70;;
69573;SDS011;62840;52.366;5.980;2022-12-18T06:56:11;23.25;;;9.10;;
69573;SDS011;62840;52.366;5.980;2022-12-18T06:58:37;19.23;;;8.13;;
69573;SDS011;62840;52.366;5.980;2022-12-18T07:01:04;20.42;;;7.78;;
69573;SDS011;62840;52.366;5.980;2022-12-18T07:03:32;18.48;;;6.82;;
69573;SDS011;62840;52.366;5.980;2022-12-18T07:05:58;15.23;;;6.78;;
69573;SDS011;62840;52.366;5.980;2022-12-18T07:08:27;20.23;;;8.07;;
69573;SDS011;62840;52.366;5.980;2022-12-18T07:10:55;19.95;;;7.20;;
69573;SDS011;62840;52.366;5.980;2022-12-18T07:13:21;15.20;;;7.10;;
69573;SDS011;62840;52.366;5.980;2022-12-18T07:15:47;16.60;;;7.37;;
69573;SDS011;62840;52.366;5.980;2022-12-18T07:18:13;15.13;;;7.32;;
69573;SDS011;62840;52.366;5.980;2022-12-18T07:20:39;16.20;;;7.68;;
69573;SDS011;62840;52.366;5.980;2022-12-18T07:23:05;13.37;;;6.80;;
69573;SDS011;62840;52.366;5.980;2022-12-18T07:25:35;14.75;;;5.88;;
69573;SDS011;62840;52.366;5.980;2022-12-18T07:28:02;13.43;;;6.03;;
69573;SDS011;62840;52.366;5.980;2022-12-18T07:30:28;16.80;;;7.07;;
69573;SDS011;62840;52.366;5.980;2022-12-18T07:32:54;13.65;;;5.85;;
69573;SDS011;62840;52.366;5.980;2022-12-18T07:35:19;18.00;;;6.70;;
69573;SDS011;62840;52.366;5.980;2022-12-18T07:37:45;15.35;;;6.47;;
69573;SDS011;62840;52.366;5.980;2022-12-18T07:40:11;14.57;;;6.40;;
69573;SDS011;62840;52.366;5.980;2022-12-18T07:42:40;13.07;;;6.00;;
69573;SDS011;62840;52.366;5.980;2022-12-18T07:45:06;17.08;;;6.80;;
69573;SDS011;62840;52.366;5.980;2022-12-18T07:47:33;15.82;;;6.78;;
69573;SDS011;62840;52.366;5.980;2022-12-18T07:50:00;13.88;;;6.43;;
69573;SDS011;62840;52.366;5.980;2022-12-18T07:52:26;13.00;;;5.93;;
69573;SDS011;62840;52.366;5.980;2022-12-18T07:54:52;15.73;;;6.18;;
69573;SDS011;62840;52.366;5.980;2022-12-18T07:57:17;12.73;;;6.43;;
69573;SDS011;62840;52.366;5.980;2022-12-18T07:59:46;14.27;;;6.10;;
69573;SDS011;62840;52.366;5.980;2022-12-18T08:02:11;13.67;;;6.37;;
69573;SDS011;62840;52.366;5.980;2022-12-18T08:04:37;15.35;;;6.47;;
69573;SDS011;62840;52.366;5.980;2022-12-18T08:07:03;16.10;;;6.07;;
69573;SDS011;62840;52.366;5.980;2022-12-18T08:09:28;13.48;;;6.28;;
69573;SDS011;62840;52.366;5.980;2022-12-18T08:11:54;19.33;;;6.87;;
69573;SDS011;62840;52.366;5.980;2022-12-18T08:14:20;17.42;;;6.75;;
69573;SDS011;62840;52.366;5.980;2022-12-18T08:16:48;12.70;;;6.00;;
69573;SDS011;62840;52.366;5.980;2022-12-18T08:19:14;13.68;;;7.00;;
69573;SDS011;62840;52.366;5.980;2022-12-18T08:21:40;17.13;;;7.40;;
69573;SDS011;62840;52.366;5.980;2022-12-18T08:24:08;12.67;;;5.70;;
69573;SDS011;62840;52.366;5.980;2022-12-18T08:26:35;13.80;;;6.75;;
69573;SDS011;62840;52.366;5.980;2022-12-18T08:29:00;17.20;;;7.43;;
69573;SDS011;62840;52.366;5.980;2022-12-18T08:31:27;15.05;;;6.68;;
69573;SDS011;62840;52.366;5.980;2022-12-18T08:33:57;13.20;;;6.63;;
69573;SDS011;62840;52.366;5.980;2022-12-18T08:36:23;18.13;;;6.30;;
69573;SDS011;62840;52.366;5.980;2022-12-18T08:38:50;13.30;;;6.00;;
69573;SDS011;62840;52.366;5.980;2022-12-18T08:41:17;16.83;;;6.85;;
69573;SDS011;62840;52.366;5.980;2022-12-18T08:43:44;17.58;;;6.80;;
69573;SDS011;62840;52.366;5.980;2022-12-18T08:46:10;15.97;;;6.50;;
69573;SDS011;62840;52.366;5.980;2022-12-18T08:48:36;15.07;;;6.95;;
69573;SDS011;62840;52.366;5.980;2022-12-18T08:51:05;15.68;;;7.00;;
69573;SDS011;62840;52.366;5.980;2022-12-18T08:53:30;15.00;;;7.13;;
69573;SDS011;62840;52.366;5.980;2022-12-18T08:55:56;13.85;;;6.90;;
69573;SDS011;62840;52.366;5.980;2022-12-18T08:58:22;17.40;;;7.13;;
69573;SDS011;62840;52.366;5.980;2022-12-18T09:00:48;14.90;;;6.63;;
69573;SDS011;62840;52.366;5.980;2022-12-18T09:03:14;18.02;;;6.72;;
69573;SDS011;62840;52.366;5.980;2022-12-18T09:05:42;15.05;;;6.70;;
69573;SDS011;62840;52.366;5.980;2022-12-18T09:08:13;12.00;;;6.05;;
69573;SDS011;62840;52.366;5.980;2022-12-18T09:10:41;15.03;;;6.40;;
69573;SDS011;62840;52.366;5.980;2022-12-18T09:13:08;14.30;;;6.70;;
69573;SDS011;62840;52.366;5.980;2022-12-18T09:15:39;11.98;;;5.85;;
69573;SDS011;62840;52.366;5.980;2022-12-18T09:18:06;14.65;;;6.68;;
69573;SDS011;62840;52.366;5.980;2022-12-18T09:20:31;13.73;;;6.90;;
69573;SDS011;62840;52.366;5.980;2022-12-18T09:22:57;13.38;;;5.82;;
69573;SDS011;62840;52.366;5.980;2022-12-18T09:25:25;14.67;;;6.50;;
69573;SDS011;62840;52.366;5.980;2022-12-18T09:27:51;12.38;;;5.93;;
69573;SDS011;62840;52.366;5.980;2022-12-18T09:30:17;18.38;;;7.10;;
69573;SDS011;62840;52.366;5.980;2022-12-18T09:32:43;13.33;;;6.17;;
69573;SDS011;62840;52.366;5.980;2022-12-18T09:35:08;13.35;;;6.43;;
69573;SDS011;62840;52.366;5.980;2022-12-18T09:37:34;16.73;;;7.45;;
69573;SDS011;62840;52.366;5.980;2022-12-18T09:40:00;14.43;;;6.43;;
69573;SDS011;62840;52.366;5.980;2022-12-18T09:42:28;14.07;;;6.00;;
69573;SDS011;62840;52.366;5.980;2022-12-18T09:44:54;14.65;;;6.22;;
69573;SDS011;62840;52.366;5.980;2022-12-18T09:47:22;15.60;;;6.38;;
69573;SDS011;62840;52.366;5.980;2022-12-18T09:49:55;14.20;;;5.87;;
69573;SDS011;62840;52.366;5.980;2022-12-18T09:52:26;15.45;;;6.30;;
69573;SDS011;62840;52.366;5.980;2022-12-18T09:55:00;14.10;;;6.25;;
69573;SDS011;62840;52.366;5.980;2022-12-18T09:57:39;14.82;;;6.78;;
69573;SDS011;62840;52.366;5.980;2022-12-18T10:00:15;13.60;;;6.07;;
69573;SDS011;62840;52.366;5.980;2022-12-18T10:02:45;13.70;;;5.83;;
69573;SDS011;62840;52.366;5.980;2022-12-18T10:05:13;17.92;;;7.15;;
69573;SDS011;62840;52.366;5.980;2022-12-18T10:07:50;14.15;;;6.32;;
69573;SDS011;62840;52.366;5.980;2022-12-18T10:10:31;13.07;;;6.45;;
69573;SDS011;62840;52.366;5.980;2022-12-18T10:13:12;12.68;;;5.75;;
69573;SDS011;62840;52.366;5.980;2022-12-18T10:15:52;10.90;;;6.03;;
69573;SDS011;62840;52.366;5.980;2022-12-18T10:18:36;14.05;;;5.82;;
69573;SDS011;62840;52.366;5.980;2022-12-18T10:21:36;14.05;;;5.78;;
69573;SDS011;62840;52.366;5.980;2022-12-18T10:24:16;9.95;;;5.25;;
69573;SDS011;62840;52.366;5.980;2022-12-18T10:26:52;15.57;;;6.63;;
69573;SDS011;62840;52.366;5.980;2022-12-18T10:29:27;11.70;;;5.43;;
69573;SDS011;62840;52.366;5.980;2022-12-18T10:31:53;14.50;;;5.82;;
69573;SDS011;62840;52.366;5.980;2022-12-18T10:34:19;13.00;;;5.18;;
69573;SDS011;62840;52.366;5.980;2022-12-18T10:36:45;11.10;;;4.80;;
69573;SDS011;62840;52.366;5.980;2022-12-18T10:39:16;10.88;;;6.10;;
69573;SDS011;62840;52.366;5.980;2022-12-18T10:41:44;13.43;;;5.93;;
69573;SDS011;62840;52.366;5.980;2022-12-18T10:44:11;16.33;;;6.23;;
69573;SDS011;62840;52.366;5.980;2022-12-18T10:46:44;12.30;;;5.65;;
69573;SDS011;62840;52.366;5.980;2022-12-18T10:49:21;13.85;;;5.82;;
69573;SDS011;62840;52.366;5.980;2022-12-18T10:51:50;12.50;;;5.57;;
69573;SDS011;62840;52.366;5.980;2022-12-18T10:54:29;12.87;;;5.70;;
69573;SDS011;62840;52.366;5.980;2022-12-18T10:59:55;10.82;;;5.35;;
69573;SDS011;62840;52.366;5.980;2022-12-18T11:02:33;10.73;;;4.78;;
69573;SDS011;62840;52.366;5.980;2022-12-18T11:05:02;10.77;;;4.82;;
69573;SDS011;62840;52.366;5.980;2022-12-18T11:07:49;10.70;;;5.27;;
69573;SDS011;62840;52.366;5.980;2022-12-18T11:10:16;12.65;;;4.90;;
69573;SDS011;62840;52.366;5.980;2022-12-18T11:12:44;11.88;;;5.25;;
69573;SDS011;62840;52.366;5.980;2022-12-18T11:15:13;9.90;;;4.53;;
69573;SDS011;62840;52.366;5.980;2022-12-18T11:17:46;12.75;;;4.72;;
69573;SDS011;62840;52.366;5.980;2022-12-18T11:20:22;9.80;;;4.57;;
69573;SDS011;62840;52.366;5.980;2022-12-18T11:22:56;9.82;;;5.00;;
69573;SDS011;62840;52.366;5.980;2022-12-18T11:25:25;12.55;;;4.70;;
69573;SDS011;62840;52.366;5.980;2022-12-18T11:27:52;10.50;;;4.63;;
69573;SDS011;62840;52.366;5.980;2022-12-18T11:30:21;11.63;;;5.05;;
69573;SDS011;62840;52.366;5.980;2022-12-18T11:32:52;11.37;;;4.93;;
69573;SDS011;62840;52.366;5.980;2022-12-18T11:35:30;9.65;;;4.70;;
69573;SDS011;62840;52.366;5.980;2022-12-18T11:38:06;10.00;;;4.78;;
69573;SDS011;62840;52.366;5.980;2022-12-18T11:40:47;10.75;;;4.63;;
69573;SDS011;62840;52.366;5.980;2022-12-18T11:43:25;9.55;;;4.10;;
69573;SDS011;62840;52.366;5.980;2022-12-18T11:45:59;9.30;;;5.03;;
69573;SDS011;62840;52.366;5.980;2022-12-18T11:48:36;10.85;;;4.85;;
69573;SDS011;62840;52.366;5.980;2022-12-18T11:51:11;11.82;;;4.60;;
69573;SDS011;62840;52.366;5.980;2022-12-18T11:53:57;11.05;;;5.72;;
69573;SDS011;62840;52.366;5.980;2022-12-18T11:56:26;12.63;;;6.53;;
69573;SDS011;62840;52.366;5.980;2022-12-18T11:59:00;13.02;;;5.85;;
69573;SDS011;62840;52.366;5.980;2022-12-18T12:01:44;12.52;;;6.22;;
69573;SDS011;62840;52.366;5.980;2022-12-18T12:07:38;13.43;;;5.03;;
69573;SDS011;62840;52.366;5.980;2022-12-18T12:10:22;8.67;;;4.77;;
69573;SDS011;62840;52.366;5.980;2022-12-18T12:13:11;14.48;;;5.22;;
69573;SDS011;62840;52.366;5.980;2022-12-18T12:15:55;10.05;;;4.80;;
69573;SDS011;62840;52.366;5.980;2022-12-18T12:18:42;11.00;;;4.50;;
69573;SDS011;62840;52.366;5.980;2022-12-18T12:21:25;14.35;;;5.53;;
69573;SDS011;62840;52.366;5.980;2022-12-18T12:24:08;11.70;;;4.67;;
69573;SDS011;62840;52.366;5.980;2022-12-18T12:27:00;10.35;;;4.47;;
69573;SDS011;62840;52.366;5.980;2022-12-18T12:29:46;8.77;;;4.32;;
69573;SDS011;62840;52.366;5.980;2022-12-18T12:32:29;12.30;;;4.22;;
69573;SDS011;62840;52.366;5.980;2022-12-18T12:35:18;10.35;;;4.57;;
69573;SDS011;62840;52.366;5.980;2022-12-18T12:38:03;9.57;;;4.40;;
69573;SDS011;62840;52.366;5.980;2022-12-18T12:40:39;10.68;;;4.40;;
69573;SDS011;62840;52.366;5.980;2022-12-18T12:43:20;9.40;;;4.00;;
69573;SDS011;62840;52.366;5.980;2022-12-18T12:45:58;9.60;;;4.40;;
69573;SDS011;62840;52.366;5.980;2022-12-18T12:48:34;11.85;;;4.50;;
69573;SDS011;62840;52.366;5.980;2022-12-18T12:51:09;10.63;;;5.03;;
69573;SDS011;62840;52.366;5.980;2022-12-18T12:53:45;11.88;;;5.55;;
69573;SDS011;62840;52.366;5.980;2022-12-18T12:56:11;12.65;;;6.45;;
69573;SDS011;62840;52.366;5.980;2022-12-18T12:58:45;12.80;;;5.30;;
69573;SDS011;62840;52.366;5.980;2022-12-18T13:01:25;13.60;;;5.30;;
69573;SDS011;62840;52.366;5.980;2022-12-18T13:04:02;9.97;;;5.93;;
69573;SDS011;62840;52.366;5.980;2022-12-18T13:06:43;9.35;;;5.07;;
69573;SDS011;62840;52.366;5.980;2022-12-18T13:09:18;13.27;;;6.68;;
69573;SDS011;62840;52.366;5.980;2022-12-18T13:11:44;8.63;;;4.40;;
69573;SDS011;62840;52.366;5.980;2022-12-18T13:14:19;12.05;;;5.65;;
69573;SDS011;62840;52.366;5.980;2022-12-18T13:19:52;14.05;;;6.75;;
69573;SDS011;62840;52.366;5.980;2022-12-18T13:22:33;13.90;;;5.93;;
69573;SDS011;62840;52.366;5.980;2022-12-18T13:25:04;11.93;;;5.30;;
69573;SDS011;62840;52.366;5.980;2022-12-18T13:28:04;10.48;;;5.45;;
69573;SDS011;62840;52.366;5.980;2022-12-18T13:30:41;11.30;;;4.73;;
69573;SDS011;62840;52.366;5.980;2022-12-18T13:36:13;12.00;;;6.07;;
69573;SDS011;62840;52.366;5.980;2022-12-18T13:41:51;11.77;;;5.07;;
69573;SDS011;62840;52.366;5.980;2022-12-18T13:44:30;13.20;;;5.47;;
69573;SDS011;62840;52.366;5.980;2022-12-18T13:46:59;12.63;;;5.43;;
69573;SDS011;62840;52.366;5.980;2022-12-18T13:49:28;10.93;;;5.15;;
69573;SDS011;62840;52.366;5.980;2022-12-18T13:52:03;10.15;;;4.68;;
69573;SDS011;62840;52.366;5.980;2022-12-18T13:54:42;9.35;;;4.68;;
69573;SDS011;62840;52.366;5.980;2022-12-18T13:57:27;12.30;;;5.00;;
69573;SDS011;62840;52.366;5.980;2022-12-18T13:59:56;18.23;;;7.05;;
69573;SDS011;62840;52.366;5.980;2022-12-18T14:02:24;21.52;;;9.13;;
69573;SDS011;62840;52.366;5.980;2022-12-18T14:04:53;21.98;;;8.45;;
69573;SDS011;62840;52.366;5.980;2022-12-18T14:07:21;11.73;;;6.03;;
69573;SDS011;62840;52.366;5.980;2022-12-18T14:09:49;14.87;;;7.20;;
69573;SDS011;62840;52.366;5.980;2022-12-18T14:12:19;14.88;;;7.47;;
69573;SDS011;62840;52.366;5.980;2022-12-18T14:14:52;13.43;;;6.38;;
69573;SDS011;62840;52.366;5.980;2022-12-18T14:17:18;15.05;;;7.20;;
69573;SDS011;62840;52.366;5.980;2022-12-18T14:19:45;15.13;;;7.60;;
69573;SDS011;62840;52.366;5.980;2022-12-18T14:22:16;10.87;;;6.30;;
69573;SDS011;62840;52.366;5.980;2022-12-18T14:24:45;13.40;;;7.20;;
69573;SDS011;62840;52.366;5.980;2022-12-18T14:27:12;14.25;;;6.75;;
69573;SDS011;62840;52.366;5.980;2022-12-18T14:29:48;13.43;;;6.43;;
69573;SDS011;62840;52.366;5.980;2022-12-18T14:32:17;15.05;;;8.25;;
69573;SDS011;62840;52.366;5.980;2022-12-18T14:34:45;13.83;;;6.43;;
69573;SDS011;62840;52.366;5.980;2022-12-18T14:37:15;16.40;;;7.30;;
69573;SDS011;62840;52.366;5.980;2022-12-18T14:39:52;15.50;;;7.47;;
69573;SDS011;62840;52.366;5.980;2022-12-18T14:42:20;12.43;;;6.22;;
69573;SDS011;62840;52.366;5.980;2022-12-18T14:44:46;13.17;;;6.77;;
69573;SDS011;62840;52.366;5.980;2022-12-18T14:47:13;11.68;;;6.30;;
69573;SDS011;62840;52.366;5.980;2022-12-18T14:49:43;11.20;;;6.25;;
69573;SDS011;62840;52.366;5.980;2022-12-18T14:52:16;13.33;;;6.80;;
69573;SDS011;62840;52.366;5.980;2022-12-18T14:54:51;11.77;;;6.40;;
69573;SDS011;62840;52.366;5.980;2022-12-18T14:57:18;18.50;;;7.75;;
69573;SDS011;62840;52.366;5.980;2022-12-18T14:59:48;11.85;;;6.28;;
69573;SDS011;62840;52.366;5.980;2022-12-18T15:02:20;13.07;;;5.95;;
69573;SDS011;62840;52.366;5.980;2022-12-18T15:04:59;10.60;;;5.67;;
69573;SDS011;62840;52.366;5.980;2022-12-18T15:07:26;12.60;;;5.88;;